Time;durP1;ratioP1;P1;durP2;ratioP2;P2;SDS_P1;SDS_P2;PMS_P1;PMS_P2;Temp;Humidity;BMP_temperature;BMP_pressure;BME280_temperature;BME280_humidity;BME280_pressure;Samples;Min_cycle;Max_cycle;Signal;HPM_P1;HPM_P2
2023/05/21 00:01:58;;;;;;;12.10;3.20;;;;;;;13.13;54.48;100117.61;107102;1257;69233;-39
2023/05/21 00:04:28;;;;;;;6.80;3.50;;;;;;;13.08;54.41;100116.93;107036;1258;73860;-39
2023/05/21 00:06:56;;;;;;;14.00;3.40;;;;;;;13.03;54.52;100115.76;107144;1257;61116;-37
2023/05/21 00:09:23;;;;;;;10.20;3.20;;;;;;;13.01;54.49;100110.58;107040;1257;61670;-36
2023/05/21 00:11:50;;;;;;;7.90;3.10;;;;;;;12.99;54.64;100110.83;107077;1257;75690;-37
2023/05/21 00:14:17;;;;;;;6.20;3.00;;;;;;;12.97;54.59;100109.63;107058;1258;69407;-37
2023/05/21 00:16:45;;;;;;;5.90;2.30;;;;;;;12.94;54.62;100110.28;106894;1260;74845;-37
2023/05/21 00:19:13;;;;;;;7.50;2.60;;;;;;;12.89;54.63;100114.91;107116;1257;61698;-37
2023/05/21 00:21:41;;;;;;;12.70;2.80;;;;;;;12.86;54.82;100115.08;107168;1257;62291;-37
2023/05/21 00:24:08;;;;;;;5.60;2.70;;;;;;;12.82;55.00;100121.22;106929;1257;75626;-37
2023/05/21 00:26:35;;;;;;;7.00;2.60;;;;;;;12.78;55.01;100118.87;107087;1257;68958;-37
2023/05/21 00:29:03;;;;;;;9.30;2.70;;;;;;;12.75;55.09;100112.42;107185;1262;74096;-37
2023/05/21 00:31:31;;;;;;;9.10;3.10;;;;;;;12.71;55.18;100107.67;107137;1260;61630;-37
2023/05/21 00:33:58;;;;;;;5.70;2.30;;;;;;;12.67;55.27;100112.09;107201;1259;61276;-37
2023/05/21 00:36:25;;;;;;;7.50;2.60;;;;;;;12.65;55.53;100114.39;106936;1257;76236;-37
2023/05/21 00:38:53;;;;;;;5.50;2.60;;;;;;;12.62;55.71;100111.06;106928;1260;69750;-37
2023/05/21 00:41:22;;;;;;;6.60;2.30;;;;;;;12.57;55.65;100110.25;106886;1265;73556;-37
2023/05/21 00:43:49;;;;;;;11.80;2.80;;;;;;;12.51;55.87;100106.53;107147;1259;60766;-37
2023/05/21 00:46:19;;;;;;;3.60;2.20;;;;;;;12.46;55.92;100100.98;107046;1260;60411;-37
2023/05/21 00:48:47;;;;;;;5.80;2.70;;;;;;;12.40;56.14;100100.20;106511;1257;1003021;-37
2023/05/21 00:51:15;;;;;;;7.40;2.40;;;;;;;12.34;56.38;100101.24;107059;1257;67210;-37
2023/05/21 00:53:43;;;;;;;7.20;2.70;;;;;;;12.32;56.61;100101.02;107227;1257;72787;-37
2023/05/21 00:56:10;;;;;;;5.30;2.70;;;;;;;12.29;56.95;100098.39;107189;1257;62135;-37
2023/05/21 00:58:38;;;;;;;9.20;2.90;;;;;;;12.25;56.93;100096.90;107135;1257;61266;-37
2023/05/21 01:01:05;;;;;;;9.50;2.70;;;;;;;12.21;57.02;100097.66;107026;1260;75330;-37
2023/05/21 01:03:37;;;;;;;6.80;2.80;;;;;;;12.17;57.33;100099.51;107087;1257;67641;-37
2023/05/21 01:06:05;;;;;;;8.10;2.20;;;;;;;12.14;57.20;100097.89;107134;1258;72962;-37
2023/05/21 01:08:39;;;;;;;6.10;2.40;;;;;;;12.10;57.45;100101.20;107241;1257;61708;-37
2023/05/21 01:11:07;;;;;;;8.10;2.60;;;;;;;12.06;57.62;100103.50;107199;1257;61587;-37
2023/05/21 01:13:37;;;;;;;6.60;2.70;;;;;;;12.01;57.60;100099.33;107031;1257;76174;-37
2023/05/21 01:16:05;;;;;;;10.90;3.30;;;;;;;11.99;57.65;100099.70;107055;1257;68082;-37
2023/05/21 01:18:33;;;;;;;4.00;2.60;;;;;;;11.99;57.72;100095.10;106933;1257;74758;-37
2023/05/21 01:21:01;;;;;;;3.80;2.40;;;;;;;11.97;57.64;100093.36;107185;1260;60498;-37
2023/05/21 01:23:28;;;;;;;3.80;2.40;;;;;;;11.96;57.95;100090.77;106819;1257;61319;-37
2023/05/21 01:25:55;;;;;;;5.50;2.50;;;;;;;11.95;58.01;100092.77;107184;1256;76170;-37
2023/05/21 01:28:23;;;;;;;5.00;2.80;;;;;;;11.93;58.13;100086.26;107213;1258;70285;-37
2023/05/21 01:30:50;;;;;;;7.50;2.40;;;;;;;11.91;58.13;100086.43;107100;1257;74912;-37
2023/05/21 01:33:50;;;;;;;6.60;2.40;;;;;;;11.88;58.20;100085.73;107148;1257;60210;-37
2023/05/21 01:36:22;;;;;;;;;;;;;;;11.85;58.35;100081.02;106994;1257;62362;-37
2023/05/21 01:39:06;;;;;;;4.40;2.50;;;;;;;11.75;58.46;100078.10;107236;1257;73479;-37
2023/05/21 01:41:36;;;;;;;4.10;2.20;;;;;;;11.70;58.60;100078.44;107022;1257;69431;-37
2023/05/21 01:44:03;;;;;;;5.60;2.60;;;;;;;11.71;58.88;100087.15;107010;1262;74343;-37
2023/05/21 01:46:32;;;;;;;6.70;2.30;;;;;;;11.69;58.85;100086.79;107240;1258;62341;-37
2023/05/21 01:48:59;;;;;;;7.80;2.50;;;;;;;11.67;59.22;100083.88;107133;1257;62292;-37
2023/05/21 01:51:26;;;;;;;5.70;2.10;;;;;;;11.71;59.74;100084.77;107039;1257;73967;-37
2023/05/21 01:53:54;;;;;;;5.40;2.20;;;;;;;11.83;59.66;100086.61;107037;1262;69320;-37
2023/05/21 01:56:24;;;;;;;5.60;2.20;;;;;;;11.91;59.56;100088.40;106997;1259;73436;-37
2023/05/21 01:58:51;;;;;;;5.90;2.60;;;;;;;11.99;59.59;100090.67;106950;1258;62120;-37
2023/05/21 02:01:19;;;;;;;5.20;2.70;;;;;;;12.06;59.57;100091.71;107020;1257;61792;-37
2023/05/21 02:03:47;;;;;;;7.10;2.70;;;;;;;12.13;59.55;100090.24;107230;1257;75473;-37
2023/05/21 02:06:14;;;;;;;8.00;2.80;;;;;;;12.18;59.27;100086.09;107239;1262;70348;-37
2023/05/21 02:08:42;;;;;;;7.00;2.40;;;;;;;12.20;59.29;100089.78;107200;1256;74490;-37
2023/05/21 02:11:09;;;;;;;6.60;3.00;;;;;;;12.20;59.11;100090.36;107022;1263;60516;-37
2023/05/21 02:13:41;;;;;;;7.40;2.70;;;;;;;12.20;59.07;100085.52;107056;1257;60622;-37
2023/05/21 02:16:13;;;;;;;9.30;2.80;;;;;;;12.17;59.00;100087.33;107067;1257;75723;-37
2023/05/21 02:18:42;;;;;;;3.80;2.40;;;;;;;12.16;58.79;100087.52;107065;1257;69316;-37
2023/05/21 02:21:12;;;;;;;7.20;2.50;;;;;;;12.13;58.63;100087.92;107052;1264;74978;-37
2023/05/21 02:23:41;;;;;;;4.10;2.40;;;;;;;12.09;58.58;100089.61;107074;1259;60437;-37
2023/05/21 02:26:08;;;;;;;6.40;2.60;;;;;;;12.06;58.61;100091.55;107279;1257;61957;-37
2023/05/21 02:28:35;;;;;;;6.90;2.80;;;;;;;12.02;58.83;100091.91;107095;1257;75904;-37
2023/05/21 02:31:03;;;;;;;8.20;2.70;;;;;;;11.97;58.98;100091.02;107042;1257;69040;-38
2023/05/21 02:33:30;;;;;;;8.30;2.60;;;;;;;11.92;59.27;100090.58;107000;1257;74126;-37
2023/05/21 02:35:57;;;;;;;4.40;2.50;;;;;;;11.88;59.42;100092.02;107104;1257;62348;-37
2023/05/21 02:38:25;;;;;;;9.10;2.60;;;;;;;11.81;59.65;100091.15;107214;1257;61906;-37
2023/05/21 02:40:52;;;;;;;4.40;2.60;;;;;;;11.74;60.05;100088.03;106984;1256;72658;-37
2023/05/21 02:43:20;;;;;;;8.30;2.80;;;;;;;11.69;60.18;100086.80;107093;1257;69234;-37
2023/05/21 02:45:47;;;;;;;5.40;2.70;;;;;;;11.72;60.18;100087.67;107023;1257;74954;-37
2023/05/21 02:48:15;;;;;;;4.90;2.50;;;;;;;11.73;60.33;100085.98;107086;1257;60548;-37
2023/05/21 02:50:43;;;;;;;7.30;2.50;;;;;;;11.73;60.29;100084.96;107136;1257;60467;-37
2023/05/21 02:53:10;;;;;;;4.10;2.90;;;;;;;11.75;60.30;100088.36;106292;1257;1002967;-38
2023/05/21 02:55:37;;;;;;;7.50;2.70;;;;;;;11.77;60.43;100088.49;107350;1257;68217;-37
2023/05/21 02:58:05;;;;;;;5.50;2.90;;;;;;;11.79;60.46;100090.47;107120;1260;74741;-37
2023/05/21 03:00:32;;;;;;;7.20;2.70;;;;;;;11.76;60.38;100091.59;107069;1257;62339;-37
2023/05/21 03:03:00;;;;;;;7.80;2.50;;;;;;;11.74;60.60;100095.95;106964;1259;61106;-37
2023/05/21 03:05:27;;;;;;;3.50;2.30;;;;;;;11.73;60.56;100103.05;107060;1260;74776;-37
2023/05/21 03:07:55;;;;;;;6.20;2.50;;;;;;;11.73;60.74;100107.81;107062;1258;68939;-37
2023/05/21 03:10:22;;;;;;;3.40;2.40;;;;;;;11.73;60.82;100103.27;107030;1260;74070;-37
2023/05/21 03:12:49;;;;;;;4.10;2.50;;;;;;;11.72;60.99;100103.48;107074;1262;61696;-37
2023/05/21 03:15:22;;;;;;;9.40;2.30;;;;;;;11.73;61.06;100107.70;107042;1258;61695;-38
2023/05/21 03:17:52;;;;;;;6.60;2.80;;;;;;;11.85;61.01;100108.73;107071;1260;75036;-38
2023/05/21 03:20:22;;;;;;;5.20;2.80;;;;;;;11.93;60.76;100109.55;107088;1260;69080;-38
2023/05/21 03:22:49;;;;;;;4.20;2.40;;;;;;;11.97;60.52;100109.20;107083;1259;74355;-38
2023/05/21 03:25:17;;;;;;;4.20;2.50;;;;;;;12.00;60.23;100111.91;107050;1259;61197;-38
2023/05/21 03:27:45;;;;;;;5.10;2.50;;;;;;;12.04;60.36;100110.73;107063;1260;62405;-38
2023/05/21 03:30:25;;;;;;;6.80;2.90;;;;;;;12.08;60.32;100109.86;107056;1258;72778;-38
2023/05/21 03:33:12;;;;;;;13.10;2.90;;;;;;;12.09;60.38;100111.74;107029;1258;69826;-38
2023/05/21 03:35:41;;;;;;;8.80;2.90;;;;;;;12.08;60.57;100114.82;107052;1265;75136;-38
2023/05/21 03:38:08;;;;;;;7.90;2.60;;;;;;;12.10;60.63;100114.94;107029;1260;61465;-38
2023/05/21 03:40:36;;;;;;;3.70;2.60;;;;;;;12.11;60.54;100109.45;107031;1260;62685;-38
2023/05/21 03:43:04;;;;;;;5.80;3.20;;;;;;;12.12;60.26;100108.25;107275;1258;74609;-38
2023/05/21 03:45:31;;;;;;;6.90;2.90;;;;;;;12.12;59.88;100107.63;107030;1260;70309;-38
2023/05/21 03:48:27;;;;;;;6.30;3.20;;;;;;;12.11;59.90;100107.13;106994;1260;72949;-37
2023/05/21 03:50:55;;;;;;;5.20;3.00;;;;;;;12.09;59.97;100107.00;107062;1262;60440;-38
2023/05/21 03:53:23;;;;;;;8.20;2.90;;;;;;;12.08;60.44;100110.78;106958;1260;62727;-38
2023/05/21 03:55:54;;;;;;;6.80;3.20;;;;;;;12.15;60.70;100112.20;107038;1258;75631;-38
2023/05/21 03:58:22;;;;;;;7.60;2.90;;;;;;;12.25;60.43;100110.41;107212;1261;69145;-38
2023/05/21 04:00:49;;;;;;;4.40;3.30;;;;;;;12.31;60.17;100106.13;107082;1260;71962;-37
2023/05/21 04:03:17;;;;;;;5.70;2.90;;;;;;;12.36;60.08;100112.39;107022;1260;62396;-38
2023/05/21 04:05:44;;;;;;;6.50;3.20;;;;;;;12.42;59.82;100113.55;107096;1260;61407;-38
2023/05/21 04:08:12;;;;;;;7.30;3.40;;;;;;;12.47;59.96;100114.50;107030;1260;71811;-38
2023/05/21 04:10:39;;;;;;;4.20;3.20;;;;;;;12.52;59.49;100112.77;107045;1263;69622;-38
2023/05/21 04:13:08;;;;;;;12.40;4.20;;;;;;;12.59;59.14;100110.60;107050;1260;71676;-38
2023/05/21 04:15:37;;;;;;;5.90;3.00;;;;;;;12.64;59.19;100108.75;107057;1259;62451;-38
2023/05/21 04:18:06;;;;;;;5.30;3.40;;;;;;;12.65;58.57;100103.41;106953;1258;210382;-38
2023/05/21 04:21:38;;;;;;;6.40;3.90;;;;;;;12.69;58.77;100102.88;104101;1292;600462;-37
2023/05/21 04:24:06;;;;;;;9.50;4.00;;;;;;;12.70;58.50;100094.98;106708;1266;61269;-37
2023/05/21 04:26:59;;;;;;;5.50;3.60;;;;;;;12.75;58.90;100097.65;106593;1266;59540;-37
2023/05/21 04:29:30;;;;;;;7.70;4.10;;;;;;;12.78;58.55;100094.28;106590;1267;74544;-38
2023/05/21 04:31:57;;;;;;;7.10;3.90;;;;;;;12.81;58.21;100095.53;106500;1266;69916;-37
2023/05/21 04:34:24;;;;;;;6.80;4.40;;;;;;;12.86;58.04;100092.39;106472;1269;198104;-37
2023/05/21 04:36:52;;;;;;;5.40;3.90;;;;;;;12.91;58.03;100090.23;106782;1264;62667;-37
2023/05/21 04:39:20;;;;;;;6.90;4.00;;;;;;;12.92;58.03;100083.39;106655;1264;61506;-37
2023/05/21 04:41:49;;;;;;;5.80;3.90;;;;;;;12.93;57.55;100084.73;105977;1264;1002356;-37
2023/05/21 04:44:17;;;;;;;7.40;4.20;;;;;;;12.93;57.46;100079.08;106803;1264;70206;-37
2023/05/21 04:46:44;;;;;;;4.90;4.20;;;;;;;12.95;57.35;100075.69;106747;1264;71912;-37
2023/05/21 04:49:12;;;;;;;7.00;4.10;;;;;;;13.00;57.37;100082.55;106780;1264;59601;-38
2023/05/21 04:51:40;;;;;;;6.10;4.20;;;;;;;13.06;57.00;100081.05;106885;1261;61653;-38
2023/05/21 04:54:07;;;;;;;8.90;4.10;;;;;;;13.11;57.01;100082.55;106931;1263;71545;-39
2023/05/21 04:56:34;;;;;;;12.80;4.10;;;;;;;13.18;57.68;100076.56;106997;1265;69569;-38
2023/05/21 04:59:02;;;;;;;5.30;4.20;;;;;;;13.26;56.98;100073.09;106875;1263;73328;-39
2023/05/21 05:01:33;;;;;;;6.90;4.40;;;;;;;13.35;56.56;100067.34;106875;1263;61354;-39
2023/05/21 05:04:01;;;;;;;9.70;4.70;;;;;;;13.43;57.23;100067.96;106895;1261;60309;-39
2023/05/21 05:06:29;;;;;;;8.30;4.40;;;;;;;13.53;56.17;100064.77;106965;1264;73185;-38
2023/05/21 05:08:57;;;;;;;6.40;4.20;;;;;;;13.60;55.33;100064.05;106775;1266;70042;-38
2023/05/21 05:11:25;;;;;;;6.00;3.70;;;;;;;13.64;54.97;100062.02;106819;1263;73444;-38
2023/05/21 05:13:53;;;;;;;5.90;4.40;;;;;;;13.68;55.08;100063.73;106900;1263;59673;-39
2023/05/21 05:16:24;;;;;;;7.30;3.90;;;;;;;13.76;55.88;100064.73;106875;1262;61959;-38
2023/05/21 05:18:52;;;;;;;7.20;4.40;;;;;;;13.85;55.72;100060.77;106881;1264;73935;-39
2023/05/21 05:21:21;;;;;;;7.30;4.00;;;;;;;13.95;55.76;100060.92;107236;1256;67946;-38
2023/05/21 05:23:48;;;;;;;9.50;4.30;;;;;;;14.06;55.37;100061.16;107315;1260;74962;-38
2023/05/21 05:26:15;;;;;;;9.00;4.00;;;;;;;14.16;54.83;100062.91;107322;1257;59631;-39
2023/05/21 05:28:44;;;;;;;6.00;4.50;;;;;;;14.27;54.30;100062.69;107226;1257;62419;-38
2023/05/21 05:31:12;;;;;;;4.50;3.90;;;;;;;14.39;53.75;100068.50;107073;1257;75407;-38
2023/05/21 05:33:41;;;;;;;9.90;4.60;;;;;;;14.51;53.04;100069.05;107060;1257;69502;-38
2023/05/21 05:36:08;;;;;;;7.10;4.60;;;;;;;14.59;52.35;100073.77;107205;1257;73200;-39
2023/05/21 05:38:36;;;;;;;10.40;4.40;;;;;;;14.64;51.49;100074.07;107222;1259;59648;-38
2023/05/21 05:41:03;;;;;;;5.90;4.30;;;;;;;14.66;51.82;100075.04;107018;1257;60347;-38
2023/05/21 05:43:30;;;;;;;7.80;3.80;;;;;;;14.72;51.37;100071.46;107079;1257;75096;-39
2023/05/21 05:45:58;;;;;;;6.30;4.30;;;;;;;14.80;51.24;100067.42;107188;1257;66792;-39
2023/05/21 05:48:26;;;;;;;5.60;3.90;;;;;;;14.88;50.42;100068.78;106958;1257;74511;-39
2023/05/21 05:50:54;;;;;;;7.90;3.50;;;;;;;14.95;49.91;100071.05;107165;1257;60672;-39
2023/05/21 05:53:23;;;;;;;10.30;4.00;;;;;;;14.99;49.50;100070.64;107159;1257;60479;-38
2023/05/21 05:55:51;;;;;;;8.00;3.60;;;;;;;15.01;50.14;100069.95;107181;1257;72861;-38
2023/05/21 05:58:18;;;;;;;4.70;3.60;;;;;;;15.05;49.80;100071.02;107059;1262;68837;-38
2023/05/21 06:00:58;;;;;;;5.00;3.90;;;;;;;15.13;50.30;100072.60;107086;1257;71853;-39
2023/05/21 06:03:27;;;;;;;6.70;3.30;;;;;;;15.19;49.12;100069.64;107216;1257;59612;-38
2023/05/21 06:05:55;;;;;;;6.30;3.70;;;;;;;15.26;48.64;100075.56;107043;1257;62375;-38
2023/05/21 06:08:23;;;;;;;12.40;3.60;;;;;;;15.31;48.73;100074.06;107220;1257;73314;-39
2023/05/21 06:10:51;;;;;;;6.40;3.80;;;;;;;15.37;49.14;100076.92;107162;1262;70374;-39
2023/05/21 06:13:18;;;;;;;8.00;3.40;;;;;;;15.44;48.77;100073.41;107085;1257;73906;-38
2023/05/21 06:15:46;;;;;;;5.50;3.20;;;;;;;15.50;47.74;100073.50;107232;1260;60225;-38
2023/05/21 06:18:13;;;;;;;4.90;3.40;;;;;;;15.55;48.38;100071.46;107135;1257;59634;-38
2023/05/21 06:20:41;;;;;;;4.60;3.10;;;;;;;15.64;48.23;100074.35;107255;1262;73626;-38
2023/05/21 06:23:08;;;;;;;7.40;3.50;;;;;;;15.73;47.34;100071.32;107149;1257;69536;-37
2023/05/21 06:25:36;;;;;;;5.70;3.60;;;;;;;15.81;48.13;100070.54;107191;1259;74581;-38
2023/05/21 06:28:04;;;;;;;7.30;3.90;;;;;;;15.91;48.37;100071.40;107085;1260;62067;-38
2023/05/21 06:30:31;;;;;;;5.50;3.30;;;;;;;16.02;47.94;100066.25;107123;1257;59677;-38
2023/05/21 06:32:59;;;;;;;7.50;4.60;;;;;;;16.12;47.35;100068.06;107260;1257;74132;-38
2023/05/21 06:35:27;;;;;;;4.40;3.40;;;;;;;16.19;46.71;100063.96;107123;1257;70294;-38
2023/05/21 06:37:54;;;;;;;12.30;3.80;;;;;;;16.23;45.91;100057.59;107256;1257;74936;-39
2023/05/21 06:40:21;;;;;;;8.20;3.40;;;;;;;16.27;46.03;100062.61;107093;1262;62387;-38
2023/05/21 06:42:51;;;;;;;5.90;3.00;;;;;;;16.31;46.26;100058.96;107137;1257;62457;-38
2023/05/21 06:45:38;;;;;;;7.30;3.60;;;;;;;16.38;45.78;100059.17;107247;1258;73261;-38
2023/05/21 06:48:17;;;;;;;4.00;2.90;;;;;;;16.41;45.30;100058.02;107277;1257;69087;-38
2023/05/21 06:50:45;;;;;;;5.60;3.30;;;;;;;16.47;44.85;100061.27;107195;1258;71358;-38
2023/05/21 06:53:15;;;;;;;5.30;3.40;;;;;;;16.49;45.12;100057.84;107150;1258;60797;-38
2023/05/21 06:55:43;;;;;;;8.20;3.30;;;;;;;16.53;45.22;100059.65;107253;1262;59679;-38
2023/05/21 06:58:14;;;;;;;4.30;3.10;;;;;;;16.58;45.13;100058.45;107220;1257;72126;-38
2023/05/21 07:00:42;;;;;;;8.50;3.50;;;;;;;16.64;45.05;100060.14;107259;1256;69074;-38
2023/05/21 07:03:09;;;;;;;6.00;2.80;;;;;;;16.70;44.17;100054.16;107254;1258;73001;-38
2023/05/21 07:05:37;;;;;;;8.30;3.10;;;;;;;16.78;43.79;100056.08;107273;1257;61506;-38
2023/05/21 07:08:05;;;;;;;7.80;3.00;;;;;;;16.87;44.05;100051.88;107086;1258;59514;-38
2023/05/21 07:10:33;;;;;;;4.30;2.70;;;;;;;16.97;43.32;100044.18;107289;1257;73582;-38
2023/05/21 07:13:01;;;;;;;8.10;2.80;;;;;;;17.04;42.89;100039.27;107297;1257;67854;-38
2023/05/21 07:15:29;;;;;;;7.30;2.60;;;;;;;17.09;42.89;100038.42;107116;1257;72045;-38
2023/05/21 07:17:56;;;;;;;5.40;2.50;;;;;;;17.18;42.81;100031.41;107209;1260;59627;-38
2023/05/21 07:20:24;;;;;;;11.70;2.90;;;;;;;17.29;42.90;100033.72;107061;1257;60599;-38
2023/05/21 07:22:52;;;;;;;7.90;2.80;;;;;;;17.38;41.06;100030.92;107228;1257;73474;-38
2023/05/21 07:25:20;;;;;;;5.30;2.90;;;;;;;17.38;40.96;100025.05;107238;1257;68589;-37
2023/05/21 07:27:47;;;;;;;5.10;3.10;;;;;;;17.42;41.45;100022.39;107056;1260;71827;-38
2023/05/21 07:30:14;;;;;;;6.40;2.40;;;;;;;17.49;41.28;100017.69;107260;1259;59509;-38
2023/05/21 07:32:42;;;;;;;8.20;2.40;;;;;;;17.57;40.83;100011.61;107132;1257;62328;-38
2023/05/21 07:35:09;;;;;;;5.60;2.40;;;;;;;17.62;41.41;100011.48;107177;1257;74447;-38
2023/05/21 07:37:36;;;;;;;8.10;2.70;;;;;;;17.67;41.23;100001.13;107602;1253;68819;-38
2023/05/21 07:40:06;;;;;;;3.40;2.50;;;;;;;17.73;40.85;100002.85;107398;1257;71459;-38
2023/05/21 07:42:33;;;;;;;;;;;;;;;17.77;41.00;100006.63;107396;1254;60242;-38
2023/05/21 07:45:01;;;;;;;4.90;2.80;;;;;;;17.74;40.44;100007.17;107527;1254;60901;-38
2023/05/21 07:47:32;;;;;;;3.20;2.50;;;;;;;17.74;40.35;100009.21;107508;1254;72139;-38
2023/05/21 07:50:00;;;;;;;8.80;2.60;;;;;;;17.81;40.52;100008.20;107587;1254;66479;-38
2023/05/21 07:52:27;;;;;;;6.00;2.50;;;;;;;17.89;39.82;100014.14;107544;1254;73847;-37
2023/05/21 07:54:55;;;;;;;3.80;2.70;;;;;;;17.96;39.74;100008.34;107613;1254;60629;-38
2023/05/21 07:57:23;;;;;;;7.10;2.60;;;;;;;18.07;40.02;100011.08;107634;1254;61389;-38
2023/05/21 07:59:57;;;;;;;4.70;2.70;;;;;;;18.24;40.06;100010.34;107576;1257;73581;-37
2023/05/21 08:02:24;;;;;;;4.40;2.40;;;;;;;18.39;40.15;100010.55;107431;1254;67957;-37
2023/05/21 08:04:53;;;;;;;7.40;2.50;;;;;;;18.52;40.16;100007.86;107524;1254;72746;-37
2023/05/21 08:07:21;;;;;;;6.90;2.80;;;;;;;18.59;39.27;100006.52;107454;1253;62595;-37
2023/05/21 08:09:50;;;;;;;4.00;2.70;;;;;;;18.66;40.07;100007.76;107706;1254;59730;-38
2023/05/21 08:12:18;;;;;;;6.00;2.80;;;;;;;18.74;39.75;100000.81;107542;1254;71771;-38
2023/05/21 08:14:45;;;;;;;4.80;3.00;;;;;;;18.79;39.09;99999.93;107429;1254;68923;-37
2023/05/21 08:17:14;;;;;;;5.20;3.00;;;;;;;18.81;39.16;100000.48;107631;1254;73793;-37
2023/05/21 08:19:42;;;;;;;4.70;2.90;;;;;;;18.88;39.91;99999.34;107636;1254;60511;-37
2023/05/21 08:22:09;;;;;;;6.00;3.20;;;;;;;19.00;39.68;99991.20;107626;1254;59592;-37
2023/05/21 08:24:39;;;;;;;3.50;2.80;;;;;;;19.16;38.47;99995.98;107580;1254;74923;-37
2023/05/21 08:27:07;;;;;;;8.40;3.10;;;;;;;19.24;38.44;99992.95;107524;1257;70160;-37
2023/05/21 08:29:34;;;;;;;6.40;3.00;;;;;;;19.31;38.27;99987.48;107609;1259;75056;-38
2023/05/21 08:32:02;;;;;;;4.90;2.80;;;;;;;19.42;38.79;99987.58;107630;1254;60372;-37
2023/05/21 08:34:29;;;;;;;6.20;2.60;;;;;;;19.57;38.82;99981.90;107638;1254;62280;-37
2023/05/21 08:37:09;;;;;;;3.90;2.80;;;;;;;19.66;37.25;99980.03;107492;1254;73069;-37
2023/05/21 08:40:11;;;;;;;5.70;2.80;;;;;;;19.63;36.88;99978.02;107300;1254;67145;-37
2023/05/21 08:42:47;;;;;;;5.80;2.90;;;;;;;19.67;37.71;99979.31;107583;1254;74775;-37
2023/05/21 08:45:22;;;;;;;6.60;2.70;;;;;;;19.77;36.96;99978.92;107550;1254;61145;-38
2023/05/21 08:47:55;;;;;;;8.40;3.00;;;;;;;19.84;37.60;99980.75;107420;1257;61464;-38
2023/05/21 08:50:26;;;;;;;5.20;2.90;;;;;;;19.91;36.40;99974.15;107370;1254;75793;-38
2023/05/21 08:52:54;;;;;;;3.80;2.20;;;;;;;19.94;36.51;99972.62;107435;1254;69340;-38
2023/05/21 08:55:22;;;;;;;4.10;2.70;;;;;;;19.96;36.07;99970.02;107420;1257;73708;-38
2023/05/21 08:57:49;;;;;;;7.40;2.50;;;;;;;20.01;36.58;99972.17;107562;1254;62761;-38
2023/05/21 09:00:19;;;;;;;7.40;3.00;;;;;;;20.01;36.37;99972.48;107612;1254;60266;-38
2023/05/21 09:02:47;;;;;;;4.40;2.80;;;;;;;19.98;36.58;99969.69;107461;1252;73587;-38
2023/05/21 09:05:16;;;;;;;4.70;2.80;;;;;;;20.00;36.94;99969.27;107595;1253;66954;-38
2023/05/21 09:07:50;;;;;;;6.40;3.00;;;;;;;20.05;36.87;99971.50;107708;1254;72461;-37
2023/05/21 09:10:41;;;;;;;6.30;3.00;;;;;;;19.98;35.85;99967.95;107627;1257;60579;-37
2023/05/21 09:13:08;;;;;;;9.10;3.10;;;;;;;19.85;36.43;99978.21;107395;1254;60347;-37
2023/05/21 09:15:36;;;;;;;4.80;2.80;;;;;;;19.79;37.31;99977.80;107539;1254;72865;-37
2023/05/21 09:18:05;;;;;;;4.90;2.90;;;;;;;19.83;37.11;99970.06;107553;1257;68459;-37
2023/05/21 09:20:45;;;;;;;3.90;3.10;;;;;;;19.85;36.78;99972.31;107336;1257;75033;-38
2023/05/21 09:23:16;;;;;;;4.40;2.80;;;;;;;19.87;36.82;99971.43;107571;1254;60609;-38
2023/05/21 09:25:45;;;;;;;5.70;2.90;;;;;;;19.87;37.22;99968.69;107484;1257;61207;-38
2023/05/21 09:28:16;;;;;;;6.80;3.00;;;;;;;19.87;37.13;99966.23;107519;1259;76206;-38
2023/05/21 09:30:45;;;;;;;4.90;2.60;;;;;;;19.98;38.35;99969.21;107555;1257;70091;-38
2023/05/21 09:33:23;;;;;;;4.30;3.00;;;;;;;20.12;37.24;99966.23;107630;1254;72193;-38
2023/05/21 09:35:50;;;;;;;3.80;2.60;;;;;;;20.17;36.91;99957.45;107537;1254;61247;-38
2023/05/21 09:38:20;;;;;;;7.40;2.70;;;;;;;20.13;35.71;99959.08;107498;1254;61087;-38
2023/05/21 09:40:47;;;;;;;3.30;2.40;;;;;;;20.00;35.94;99961.95;107404;1254;76256;-38
2023/05/21 09:43:16;;;;;;;4.20;2.60;;;;;;;19.95;36.62;99959.87;107697;1254;67342;-38
2023/05/21 09:45:54;;;;;;;5.10;2.30;;;;;;;20.02;36.55;99953.52;107569;1254;73015;-38
2023/05/21 09:48:40;;;;;;;5.20;2.40;;;;;;;20.13;36.12;99959.14;107508;1254;61818;-38
2023/05/21 09:51:17;;;;;;;;;;;;;;;20.22;35.91;99960.16;107569;1254;60764;-38
2023/05/21 09:53:48;;;;;;;5.60;3.00;;;;;;;20.21;36.11;99955.45;107542;1254;75988;-38
2023/05/21 09:56:18;;;;;;;3.30;2.50;;;;;;;20.26;36.16;99961.30;107568;1254;68794;-38
2023/05/21 09:58:45;;;;;;;5.30;2.80;;;;;;;20.27;35.93;99950.42;107392;1254;74905;-38
2023/05/21 10:01:12;;;;;;;7.00;3.00;;;;;;;20.32;36.70;99946.45;107496;1256;61010;-38
2023/05/21 10:03:39;;;;;;;4.30;2.50;;;;;;;20.52;36.38;99949.08;107615;1254;60689;-38
2023/05/21 10:06:08;;;;;;;5.50;2.70;;;;;;;20.74;35.91;99954.38;107417;1254;76168;-36
2023/05/21 10:08:36;;;;;;;4.60;2.70;;;;;;;20.85;34.98;99955.80;107645;1257;69742;-37
2023/05/21 10:11:04;;;;;;;5.40;2.70;;;;;;;20.87;34.60;99945.15;107671;1257;74717;-37
2023/05/21 10:13:33;;;;;;;3.90;2.60;;;;;;;20.78;34.82;99942.27;107613;1254;60418;-37
2023/05/21 10:16:01;;;;;;;7.20;2.80;;;;;;;20.85;34.86;99946.20;107617;1257;60409;-37
2023/05/21 10:18:29;;;;;;;5.70;2.60;;;;;;;20.95;35.51;99949.61;107594;1257;72725;-37
2023/05/21 10:20:56;;;;;;;5.30;2.60;;;;;;;21.00;34.48;99945.27;107614;1254;66942;-37
2023/05/21 10:23:24;;;;;;;4.10;2.20;;;;;;;20.90;34.83;99946.91;107546;1254;75081;-37
2023/05/21 10:25:51;;;;;;;5.80;2.40;;;;;;;20.84;34.81;99945.90;107486;1254;62667;-37
2023/05/21 10:28:19;;;;;;;5.40;2.10;;;;;;;20.85;34.78;99938.40;107522;1257;60475;-38
2023/05/21 10:30:46;;;;;;;3.50;2.30;;;;;;;20.96;34.02;99930.13;107602;1254;74860;-38
2023/05/21 10:33:16;;;;;;;6.70;2.60;;;;;;;21.11;35.13;99934.58;107567;1257;69388;-37
2023/05/21 10:35:45;;;;;;;3.90;2.40;;;;;;;21.24;35.06;99932.35;107573;1260;74858;-38
2023/05/21 10:38:12;;;;;;;4.90;2.80;;;;;;;21.38;35.16;99937.81;107614;1259;60411;-37
2023/05/21 10:40:39;;;;;;;4.90;2.40;;;;;;;21.55;35.95;99936.73;107577;1254;61987;-37
2023/05/21 10:43:22;;;;;;;4.80;2.20;;;;;;;21.82;34.45;99934.61;107567;1252;74422;-37
2023/05/21 10:46:18;;;;;;;6.50;2.50;;;;;;;22.05;34.09;99937.31;107584;1254;69034;-37
2023/05/21 10:48:54;;;;;;;8.00;2.40;;;;;;;22.16;33.85;99939.17;107552;1255;74404;-38
2023/05/21 10:51:48;;;;;;;6.20;2.50;;;;;;;22.22;34.23;99943.31;107506;1254;60261;-37
2023/05/21 10:54:41;;;;;;;5.80;2.60;;;;;;;22.39;34.15;99939.64;107071;1257;61162;-38
2023/05/21 10:57:29;;;;;;;3.00;2.60;;;;;;;22.55;34.33;99942.23;107474;1258;75192;-37
2023/05/21 10:59:56;;;;;;;5.00;2.60;;;;;;;22.71;33.36;99938.92;107472;1254;68163;-37
2023/05/21 11:02:25;;;;;;;3.00;2.40;;;;;;;22.87;33.25;99936.79;107529;1255;74470;-39
2023/05/21 11:04:59;;;;;;;4.00;2.20;;;;;;;23.07;32.60;99934.76;107658;1258;60977;-37
2023/05/21 11:07:52;;;;;;;5.50;2.50;;;;;;;23.13;31.08;99931.69;107636;1255;60277;-37
2023/05/21 11:10:35;;;;;;;6.50;2.40;;;;;;;23.10;31.49;99931.85;107574;1254;75147;-38
2023/05/21 11:13:18;;;;;;;6.40;2.60;;;;;;;23.10;32.16;99934.05;107566;1257;70001;-38
2023/05/21 11:15:58;;;;;;;6.00;2.80;;;;;;;23.25;32.89;99933.38;107582;1254;75338;-38
2023/05/21 11:18:34;;;;;;;2.50;2.20;;;;;;;23.47;31.77;99937.77;107552;1256;61918;-37
2023/05/21 11:21:09;;;;;;;5.60;2.30;;;;;;;23.39;31.62;99936.13;107518;1254;61630;-37
2023/05/21 11:24:05;;;;;;;5.70;2.50;;;;;;;23.40;32.38;99933.81;107624;1257;75085;-38
2023/05/21 11:26:48;;;;;;;4.70;2.10;;;;;;;23.62;32.53;99928.24;107532;1257;70265;-38
2023/05/21 11:29:16;;;;;;;4.10;2.40;;;;;;;23.91;32.19;99920.29;107558;1255;74771;-38
2023/05/21 11:32:00;;;;;;;3.30;2.50;;;;;;;24.18;31.49;99922.64;107575;1257;62391;-38
2023/05/21 11:34:38;;;;;;;5.00;2.50;;;;;;;24.13;29.84;99930.85;107607;1254;60298;-38